createdAt,value
2022-09-15T00:00:18.625Z,12.10
2022-09-15T00:02:46.874Z,12.10
2022-09-15T00:05:13.864Z,12.00
2022-09-15T00:07:40.594Z,12.00
2022-09-15T00:10:09.219Z,12.00
2022-09-15T00:12:35.877Z,11.90
2022-09-15T00:15:02.671Z,11.90
2022-09-15T00:17:29.336Z,11.90
2022-09-15T00:19:58.356Z,11.80
2022-09-15T00:22:26.236Z,11.80
2022-09-15T00:24:52.856Z,11.80
2022-09-15T00:27:19.609Z,11.80
2022-09-15T00:29:46.311Z,11.80
2022-09-15T00:32:12.948Z,11.80
2022-09-15T00:34:39.592Z,11.80
2022-09-15T00:37:06.335Z,11.70
2022-09-15T00:39:32.986Z,11.80
2022-09-15T00:41:59.665Z,11.70
2022-09-15T00:44:35.367Z,11.80
2022-09-15T00:47:18.755Z,11.70
2022-09-15T00:49:49.109Z,11.80
2022-09-15T00:52:47.163Z,11.80
2022-09-15T00:55:29.899Z,11.70
2022-09-15T00:58:06.607Z,11.70
2022-09-15T01:00:34.718Z,11.70
2022-09-15T01:03:02.390Z,11.60
2022-09-15T01:05:42.692Z,11.60
2022-09-15T01:08:17.484Z,11.60
2022-09-15T01:10:44.874Z,11.50
2022-09-15T01:13:13.812Z,11.50
2022-09-15T01:15:48.387Z,11.50
2022-09-15T01:18:30.343Z,11.50
2022-09-15T01:21:20.127Z,11.50
2022-09-15T01:24:21.179Z,11.40
2022-09-15T01:27:41.043Z,11.40
2022-09-15T01:30:08.816Z,11.30
2022-09-15T01:32:59.883Z,11.40
2022-09-15T01:35:31.960Z,11.30
2022-09-15T01:38:11.848Z,11.30
2022-09-15T01:40:47.121Z,11.30
2022-09-15T01:43:16.859Z,11.40
2022-09-15T01:45:46.750Z,11.40
2022-09-15T01:48:13.907Z,11.50
2022-09-15T01:50:47.478Z,11.50
2022-09-15T01:53:17.944Z,11.60
2022-09-15T01:55:52.356Z,11.60
2022-09-15T01:58:19.107Z,11.60
2022-09-15T02:00:52.248Z,11.60
2022-09-15T02:03:38.849Z,11.60
2022-09-15T02:06:18.274Z,11.70
2022-09-15T02:08:52.374Z,11.70
2022-09-15T02:11:25.054Z,11.70
2022-09-15T02:14:20.789Z,11.60
2022-09-15T02:16:52.220Z,11.60
2022-09-15T02:19:31.216Z,11.60
2022-09-15T02:22:17.626Z,11.60
2022-09-15T02:25:02.984Z,11.70
2022-09-15T02:27:33.782Z,11.60
2022-09-15T02:30:11.662Z,11.60
2022-09-15T02:33:00.893Z,11.60
2022-09-15T02:35:29.566Z,11.60
2022-09-15T02:37:57.257Z,11.60
2022-09-15T02:40:24.091Z,11.60
2022-09-15T02:42:56.677Z,11.70
2022-09-15T02:45:25.331Z,11.70
2022-09-15T02:47:52.015Z,11.70
2022-09-15T02:50:20.124Z,11.80
2022-09-15T02:52:47.078Z,11.80
2022-09-15T02:55:13.709Z,11.70
2022-09-15T02:57:40.374Z,11.80
2022-09-15T03:00:13.948Z,11.80
2022-09-15T03:02:42.146Z,11.80
2022-09-15T03:05:09.796Z,11.80
2022-09-15T03:07:38.067Z,11.80
2022-09-15T03:10:09.916Z,11.80
2022-09-15T03:12:41.423Z,11.80
2022-09-15T03:15:10.100Z,11.80
2022-09-15T03:17:38.787Z,11.80
2022-09-15T03:20:07.325Z,11.80
2022-09-15T03:22:34.281Z,11.80
2022-09-15T03:25:01.881Z,11.80
2022-09-15T03:27:28.512Z,11.80
2022-09-15T03:29:55.126Z,11.80
2022-09-15T03:32:23.954Z,11.70
2022-09-15T03:34:51.752Z,11.70
2022-09-15T03:37:19.933Z,11.60
2022-09-15T03:39:48.255Z,11.60
2022-09-15T03:42:15.035Z,11.50
2022-09-15T03:44:41.799Z,11.50
2022-09-15T03:47:08.741Z,11.40
2022-09-15T03:49:35.402Z,11.40
2022-09-15T03:52:02.234Z,11.40
2022-09-15T03:54:28.883Z,11.30
2022-09-15T03:56:55.534Z,11.20
2022-09-15T03:59:22.268Z,11.20
2022-09-15T04:01:49.300Z,11.20
2022-09-15T04:04:16.385Z,11.20
2022-09-15T04:06:43.969Z,11.20
2022-09-15T04:09:11.137Z,11.20
2022-09-15T04:11:39.441Z,11.20
2022-09-15T04:14:09.147Z,11.30
2022-09-15T04:16:36.089Z,11.30
2022-09-15T04:19:03.018Z,11.40
2022-09-15T04:21:31.665Z,11.40
2022-09-15T04:23:58.342Z,11.50
2022-09-15T04:26:31.133Z,11.50
2022-09-15T04:29:03.650Z,11.60
2022-09-15T04:31:31.664Z,11.70
2022-09-15T04:33:58.530Z,11.70
2022-09-15T04:36:28.255Z,11.80
2022-09-15T04:38:56.165Z,11.80
2022-09-15T04:41:23.161Z,11.80
2022-09-15T04:43:50.358Z,11.90
2022-09-15T04:46:18.531Z,11.80
2022-09-15T04:48:46.054Z,11.90
2022-09-15T04:51:15.840Z,11.90
2022-09-15T04:53:42.691Z,12.00
2022-09-15T04:56:15.640Z,11.90
2022-09-15T04:58:50.945Z,12.00
2022-09-15T05:01:20.626Z,11.90
2022-09-15T05:03:48.045Z,12.00
2022-09-15T05:06:17.919Z,12.00
2022-09-15T05:08:48.538Z,12.00
2022-09-15T05:11:16.025Z,12.00
2022-09-15T05:13:43.163Z,12.00
2022-09-15T05:16:15.199Z,12.00
2022-09-15T05:18:43.615Z,12.00
2022-09-15T05:21:13.257Z,12.00
2022-09-15T05:23:40.594Z,12.00
2022-09-15T05:26:11.460Z,12.10
2022-09-15T05:28:38.966Z,12.10
2022-09-15T05:31:11.440Z,12.10
2022-09-15T05:33:38.691Z,12.10
2022-09-15T05:36:07.197Z,12.10
2022-09-15T05:38:33.931Z,12.10
2022-09-15T05:41:05.733Z,12.10
2022-09-15T05:43:34.023Z,12.10
2022-09-15T05:46:01.272Z,12.10
2022-09-15T05:48:28.439Z,12.10
2022-09-15T05:50:56.473Z,12.20
2022-09-15T05:53:24.031Z,12.20
2022-09-15T05:55:56.077Z,12.20
2022-09-15T05:58:23.363Z,12.30
2022-09-15T06:00:50.126Z,12.30
2022-09-15T06:03:17.216Z,12.30
2022-09-15T06:05:43.969Z,12.40
2022-09-15T06:08:10.686Z,12.50
2022-09-15T06:10:37.459Z,12.50
2022-09-15T06:13:04.446Z,12.50
2022-09-15T06:15:32.216Z,12.60
2022-09-15T06:17:59.054Z,12.60
2022-09-15T06:20:25.840Z,12.60
2022-09-15T06:22:53.439Z,12.70
2022-09-15T06:25:20.127Z,12.70
2022-09-15T06:27:49.641Z,12.80
2022-09-15T06:30:17.846Z,13.00
2022-09-15T06:32:48.050Z,13.00
2022-09-15T06:35:15.360Z,13.10
2022-09-15T06:37:42.064Z,13.10
2022-09-15T06:40:09.312Z,13.10
2022-09-15T06:42:36.125Z,13.10
2022-09-15T06:45:04.303Z,13.10
2022-09-15T06:47:33.940Z,13.00
2022-09-15T06:50:01.083Z,13.00
2022-09-15T06:52:28.020Z,13.10
2022-09-15T06:54:54.719Z,13.00
2022-09-15T06:57:21.432Z,13.10
2022-09-15T06:59:48.108Z,13.10
2022-09-15T07:02:14.907Z,13.20
2022-09-15T07:04:41.719Z,13.30
2022-09-15T07:07:08.597Z,13.20
2022-09-15T07:09:35.576Z,13.30
2022-09-15T07:12:03.512Z,13.30
2022-09-15T07:14:30.355Z,13.30
2022-09-15T07:16:57.064Z,13.40
2022-09-15T07:19:23.766Z,13.30
2022-09-15T07:21:52.740Z,13.40
2022-09-15T07:24:20.084Z,13.40
2022-09-15T07:26:46.769Z,13.50
2022-09-15T07:29:13.808Z,13.50
2022-09-15T07:31:40.653Z,13.50
2022-09-15T07:34:07.827Z,13.50
2022-09-15T07:36:34.508Z,13.60
2022-09-15T07:39:03.512Z,13.60
2022-09-15T07:41:30.942Z,13.60
2022-09-15T07:43:59.404Z,13.80
2022-09-15T07:46:29.162Z,13.90
2022-09-15T07:48:56.492Z,13.90
2022-09-15T07:51:24.420Z,14.00
2022-09-15T07:53:51.728Z,14.00
2022-09-15T07:56:18.617Z,14.00
2022-09-15T07:58:49.156Z,14.00
2022-09-15T08:01:17.853Z,14.00
2022-09-15T08:03:51.966Z,14.00
2022-09-15T08:06:22.525Z,14.00
2022-09-15T08:08:51.733Z,13.90
2022-09-15T08:11:20.905Z,13.90
2022-09-15T08:13:49.450Z,14.00
2022-09-15T08:16:22.842Z,14.00
2022-09-15T08:18:51.657Z,14.00
2022-09-15T08:21:20.371Z,14.10
2022-09-15T08:23:54.006Z,14.10
2022-09-15T08:26:20.715Z,14.10
2022-09-15T08:28:47.615Z,14.10
2022-09-15T08:31:15.139Z,14.10
2022-09-15T08:33:45.552Z,14.10
2022-09-15T08:36:12.780Z,14.20
2022-09-15T08:38:40.743Z,14.30
2022-09-15T08:41:29.075Z,14.40
2022-09-15T08:44:08.527Z,14.40
2022-09-15T08:46:42.590Z,14.40
2022-09-15T08:49:50.070Z,14.40
2022-09-15T08:52:24.955Z,14.40
2022-09-15T08:54:53.508Z,14.40
2022-09-15T08:57:23.826Z,14.40
2022-09-15T08:59:50.556Z,14.30
2022-09-15T09:02:36.165Z,14.20
2022-09-15T09:05:17.884Z,14.20
2022-09-15T09:08:25.921Z,14.10
2022-09-15T09:10:56.165Z,14.10
2022-09-15T09:13:47.534Z,14.10
2022-09-15T09:16:35.196Z,14.00
2022-09-15T09:19:47.830Z,14.00
2022-09-15T09:22:20.693Z,14.10
2022-09-15T09:24:53.190Z,14.20
2022-09-15T09:27:28.739Z,14.30
2022-09-15T09:30:06.909Z,14.50
2022-09-15T09:32:45.966Z,14.60
2022-09-15T09:35:19.833Z,14.60
2022-09-15T09:37:46.526Z,14.70
2022-09-15T09:40:16.980Z,14.80
2022-09-15T09:42:44.835Z,14.80
2022-09-15T09:45:19.170Z,14.80
2022-09-15T09:47:48.658Z,14.90
2022-09-15T09:50:35.812Z,14.80
2022-09-15T09:53:23.334Z,14.80
2022-09-15T09:55:50.127Z,14.70
2022-09-15T09:58:22.269Z,14.70
2022-09-15T10:00:49.609Z,14.60
2022-09-15T10:03:17.495Z,14.60
2022-09-15T10:05:45.771Z,14.60
2022-09-15T10:08:20.506Z,14.60
2022-09-15T10:10:55.080Z,14.60
2022-09-15T10:13:22.445Z,14.70
2022-09-15T10:15:55.605Z,14.80
2022-09-15T10:18:34.806Z,14.90
2022-09-15T10:21:03.113Z,15.00
2022-09-15T10:23:31.799Z,15.20
2022-09-15T10:26:21.250Z,15.30
2022-09-15T10:29:26.638Z,15.40
2022-09-15T10:31:53.436Z,15.50
2022-09-15T10:34:31.327Z,15.40
2022-09-15T10:37:30.447Z,15.40
2022-09-15T10:40:00.875Z,15.30
2022-09-15T10:42:50.611Z,15.40
2022-09-15T10:45:26.144Z,15.60
2022-09-15T10:48:19.104Z,15.60
2022-09-15T10:50:48.876Z,15.70
2022-09-15T10:53:47.789Z,15.80
2022-09-15T10:56:26.179Z,15.90
2022-09-15T10:59:08.818Z,15.90
2022-09-15T11:01:43.009Z,16.10
2022-09-15T11:04:36.807Z,16.30
2022-09-15T11:07:18.412Z,16.60
2022-09-15T11:09:48.203Z,16.90
2022-09-15T11:12:49.864Z,17.20
2022-09-15T11:15:25.688Z,17.50
2022-09-15T11:18:11.943Z,17.50
2022-09-15T11:20:54.209Z,17.30
2022-09-15T11:23:32.709Z,17.20
2022-09-15T11:26:10.501Z,17.00
2022-09-15T11:28:53.769Z,16.90
2022-09-15T11:31:45.077Z,16.80
2022-09-15T11:34:31.982Z,16.80
2022-09-15T11:37:36.712Z,16.60
2022-09-15T11:40:33.255Z,16.60
2022-09-15T11:43:09.263Z,16.60
2022-09-15T11:45:42.996Z,16.40
2022-09-15T11:48:18.532Z,16.40
2022-09-15T11:50:48.558Z,16.30
2022-09-15T11:53:35.036Z,16.30
2022-09-15T11:56:09.339Z,16.30
2022-09-15T11:58:54.087Z,16.30
2022-09-15T12:01:22.922Z,16.20
2022-09-15T12:04:11.695Z,16.20
2022-09-15T12:09:30.145Z,16.10
2022-09-15T12:12:06.186Z,16.00
2022-09-15T12:14:36.958Z,16.00
2022-09-15T12:17:09.741Z,15.90
2022-09-15T12:19:39.756Z,15.90
2022-09-15T12:22:17.610Z,15.90
2022-09-15T12:25:00.627Z,15.90
2022-09-15T12:27:28.292Z,16.00
2022-09-15T12:30:00.444Z,16.00
2022-09-15T12:32:31.115Z,16.10
2022-09-15T12:35:07.173Z,16.10
2022-09-15T12:37:57.444Z,16.20
2022-09-15T12:40:26.376Z,16.30
2022-09-15T12:42:53.665Z,16.30
2022-09-15T12:45:24.758Z,16.30
2022-09-15T12:48:04.292Z,16.40
2022-09-15T12:50:36.637Z,16.30
2022-09-15T12:53:28.400Z,16.40
2022-09-15T12:55:57.517Z,16.30
2022-09-15T12:58:44.776Z,16.30
2022-09-15T13:01:24.374Z,16.20
2022-09-15T13:03:51.147Z,16.10
2022-09-15T13:06:34.911Z,16.10
2022-09-15T13:09:01.533Z,16.10
2022-09-15T13:11:37.687Z,16.20
2022-09-15T13:14:06.557Z,16.30
2022-09-15T13:16:48.179Z,16.30
2022-09-15T13:19:33.270Z,16.50
2022-09-15T13:22:11.763Z,16.50
2022-09-15T13:24:47.260Z,16.60
2022-09-15T13:27:19.624Z,16.70
2022-09-15T13:30:03.967Z,16.70
2022-09-15T13:32:52.229Z,16.70
2022-09-15T13:35:40.485Z,16.60
2022-09-15T13:38:39.381Z,16.70
2022-09-15T13:41:18.303Z,16.70
2022-09-15T13:43:54.396Z,16.70
2022-09-15T13:46:45.125Z,16.90
2022-09-15T13:49:30.074Z,17.00
2022-09-15T13:52:22.330Z,17.10
2022-09-15T13:55:26.176Z,17.30
2022-09-15T14:01:04.531Z,17.60
2022-09-15T14:03:36.919Z,17.90
2022-09-15T14:06:11.605Z,18.10
2022-09-15T14:08:39.266Z,18.10
2022-09-15T14:11:13.134Z,18.10
2022-09-15T14:13:47.559Z,18.10
2022-09-15T14:16:30.986Z,18.20
2022-09-15T14:18:59.931Z,18.10
2022-09-15T14:21:28.916Z,18.10
2022-09-15T14:24:03.454Z,18.00
2022-09-15T14:26:33.624Z,17.90
2022-09-15T14:29:05.777Z,17.80
2022-09-15T14:31:37.195Z,17.70
2022-09-15T14:34:07.216Z,17.60
2022-09-15T14:36:34.773Z,17.50
2022-09-15T14:39:18.277Z,17.40
2022-09-15T14:41:46.098Z,17.30
2022-09-15T14:47:17.867Z,17.10
2022-09-15T14:49:44.834Z,17.10
2022-09-15T14:52:24.123Z,17.00
2022-09-15T14:54:56.111Z,17.00
2022-09-15T14:57:30.675Z,16.90
2022-09-15T15:00:02.831Z,16.90
2022-09-15T15:02:48.264Z,16.80
2022-09-15T15:05:37.785Z,16.80
2022-09-15T15:08:06.866Z,16.80
2022-09-15T15:10:36.020Z,16.70
2022-09-15T15:13:14.050Z,16.70
2022-09-15T15:15:41.392Z,16.70
2022-09-15T15:18:46.163Z,16.70
2022-09-15T15:21:44.393Z,16.80
2022-09-15T15:24:20.575Z,16.80
2022-09-15T15:26:49.374Z,16.80
2022-09-15T15:29:46.009Z,16.90
2022-09-15T15:32:17.258Z,16.80
2022-09-15T15:34:52.252Z,16.70
2022-09-15T15:37:33.415Z,16.70
2022-09-15T15:40:04.353Z,16.60
2022-09-15T15:42:31.392Z,16.50
2022-09-15T15:45:25.937Z,16.40
2022-09-15T15:47:52.728Z,16.40
2022-09-15T15:50:25.240Z,16.50
2022-09-15T15:52:52.566Z,16.50
2022-09-15T15:55:24.760Z,16.40
2022-09-15T15:57:52.739Z,16.30
2022-09-15T16:00:28.780Z,16.40
2022-09-15T16:02:55.606Z,16.30
2022-09-15T16:05:26.718Z,16.30
2022-09-15T16:07:56.045Z,16.30
2022-09-15T16:10:27.240Z,16.30
2022-09-15T16:12:53.837Z,16.20
2022-09-15T16:15:21.472Z,16.10
2022-09-15T16:17:49.246Z,16.10
2022-09-15T16:20:16.988Z,16.10
2022-09-15T16:22:44.284Z,16.00
2022-09-15T16:25:29.842Z,16.00
2022-09-15T16:27:56.776Z,15.90
2022-09-15T16:30:23.661Z,15.80
2022-09-15T16:32:50.362Z,15.80
2022-09-15T16:36:03.634Z,15.80
2022-09-15T16:38:30.488Z,15.80
2022-09-15T16:40:57.271Z,15.80
2022-09-15T16:43:23.902Z,15.70
2022-09-15T16:45:51.748Z,15.70
2022-09-15T16:48:19.167Z,15.70
2022-09-15T16:51:09.100Z,15.70
2022-09-15T16:53:34.063Z,15.70
2022-09-15T16:56:00.986Z,15.70
2022-09-15T16:58:28.058Z,15.60
2022-09-15T17:00:56.622Z,15.60
2022-09-15T17:03:25.679Z,15.60
2022-09-15T17:05:54.608Z,15.60
2022-09-15T17:08:29.287Z,15.50
2022-09-15T17:10:57.665Z,15.60
2022-09-15T17:13:29.299Z,15.50
2022-09-15T17:15:58.419Z,15.50
2022-09-15T17:18:25.785Z,15.40
2022-09-15T17:20:52.689Z,15.40
2022-09-15T17:23:25.887Z,15.40
2022-09-15T17:25:57.208Z,15.40
2022-09-15T17:28:34.889Z,15.40
2022-09-15T17:31:05.678Z,15.30
2022-09-15T17:33:33.027Z,15.30
2022-09-15T17:36:00.234Z,15.40
2022-09-15T17:38:27.468Z,15.30
2022-09-15T17:40:55.412Z,15.30
2022-09-15T17:43:25.166Z,15.20
2022-09-15T17:45:53.027Z,15.20
2022-09-15T17:48:20.738Z,15.10
2022-09-15T17:50:48.658Z,15.00
2022-09-15T17:53:24.067Z,14.80
2022-09-15T17:55:51.425Z,14.70
2022-09-15T17:58:18.559Z,14.50
2022-09-15T18:00:45.873Z,14.50
2022-09-15T18:03:35.821Z,14.40
2022-09-15T18:06:06.275Z,14.30
2022-09-15T18:08:33.815Z,14.10
2022-09-15T18:11:01.680Z,14.10
2022-09-15T18:13:32.102Z,14.00
2022-09-15T18:16:07.599Z,13.90
2022-09-15T18:18:34.363Z,13.80
2022-09-15T18:21:01.298Z,13.80
2022-09-15T18:23:29.361Z,13.70
2022-09-15T18:25:56.539Z,13.60
2022-09-15T18:28:23.179Z,13.60
2022-09-15T18:30:50.610Z,13.50
2022-09-15T18:33:22.859Z,13.50
2022-09-15T18:35:50.727Z,13.50
2022-09-15T18:38:18.711Z,13.40
2022-09-15T18:40:47.480Z,13.40
2022-09-15T18:43:14.333Z,13.40
2022-09-15T18:45:42.522Z,13.40
2022-09-15T18:48:12.665Z,13.40
2022-09-15T18:50:40.640Z,13.40
2022-09-15T18:53:07.444Z,13.40
2022-09-15T18:55:34.261Z,13.40
2022-09-15T18:58:01.294Z,13.40
2022-09-15T19:00:29.137Z,13.30
2022-09-15T19:02:57.648Z,13.40
2022-09-15T19:05:24.947Z,13.40
2022-09-15T19:07:51.607Z,13.40
2022-09-15T19:10:18.263Z,13.40
2022-09-15T19:12:45.150Z,13.40
2022-09-15T19:15:13.467Z,13.50
2022-09-15T19:17:41.251Z,13.50
2022-09-15T19:20:09.892Z,13.50
2022-09-15T19:22:37.684Z,13.50
2022-09-15T19:25:05.804Z,13.50
2022-09-15T19:27:32.596Z,13.60
2022-09-15T19:29:59.912Z,13.60
2022-09-15T19:32:26.765Z,13.60
2022-09-15T19:34:53.510Z,13.60
2022-09-15T19:37:21.633Z,13.60
2022-09-15T19:39:48.783Z,13.60
2022-09-15T19:44:49.370Z,13.70
2022-09-15T19:47:16.440Z,13.70
2022-09-15T19:49:43.067Z,13.70
2022-09-15T19:52:09.716Z,13.70
2022-09-15T19:54:36.582Z,13.70
2022-09-15T19:57:03.719Z,13.70
2022-09-15T19:59:31.837Z,13.70
2022-09-15T20:02:00.007Z,13.70
2022-09-15T20:04:27.141Z,13.60
2022-09-15T20:06:53.875Z,13.70
2022-09-15T20:09:29.343Z,13.60
2022-09-15T20:12:04.127Z,13.60
2022-09-15T20:14:31.365Z,13.60
2022-09-15T20:17:02.136Z,13.50
2022-09-15T20:19:29.923Z,13.50
2022-09-15T20:21:56.883Z,13.50
2022-09-15T20:24:24.120Z,13.50
2022-09-15T20:26:50.904Z,13.50
2022-09-15T20:29:17.612Z,13.40
2022-09-15T20:31:44.297Z,13.50
2022-09-15T20:34:11.007Z,13.50
2022-09-15T20:36:38.892Z,13.50
2022-09-15T20:39:12.774Z,13.50
2022-09-15T20:41:40.263Z,13.50
2022-09-15T20:44:09.505Z,13.50
2022-09-15T20:46:36.797Z,13.50
2022-09-15T20:49:04.671Z,13.50
2022-09-15T20:51:39.349Z,13.60
2022-09-15T20:54:10.908Z,13.50
2022-09-15T20:56:38.171Z,13.40
2022-09-15T20:59:12.743Z,13.40
2022-09-15T21:01:39.843Z,13.20
2022-09-15T21:04:08.346Z,13.10
2022-09-15T21:06:37.111Z,13.10
2022-09-15T21:09:04.198Z,13.00
2022-09-15T21:11:31.308Z,13.00
2022-09-15T21:13:58.741Z,12.80
2022-09-15T21:16:27.738Z,12.80
2022-09-15T21:18:56.367Z,12.80
2022-09-15T21:21:23.810Z,12.70
2022-09-15T21:23:53.258Z,12.70
2022-09-15T21:26:27.966Z,12.70
2022-09-15T21:28:55.985Z,12.70
2022-09-15T21:31:31.760Z,12.60
2022-09-15T21:33:59.068Z,12.60
2022-09-15T21:36:30.620Z,12.50
2022-09-15T21:38:58.684Z,12.50
2022-09-15T21:41:28.682Z,12.50
2022-09-15T21:43:55.781Z,12.50
2022-09-15T21:46:24.738Z,12.40
2022-09-15T21:48:51.741Z,12.40
2022-09-15T21:51:24.221Z,12.40
2022-09-15T21:53:55.680Z,12.40
2022-09-15T21:56:23.273Z,12.30
2022-09-15T21:58:49.864Z,12.30
2022-09-15T22:01:25.239Z,12.20
2022-09-15T22:04:04.724Z,12.30
2022-09-15T22:06:34.229Z,12.20
2022-09-15T22:09:06.772Z,12.20
2022-09-15T22:11:33.988Z,12.20
2022-09-15T22:14:03.051Z,12.20
2022-09-15T22:16:30.274Z,12.30
2022-09-15T22:18:57.440Z,12.30
2022-09-15T22:21:30.484Z,12.40
2022-09-15T22:23:59.033Z,12.40
2022-09-15T22:26:28.344Z,12.40
2022-09-15T22:28:55.915Z,12.50
2022-09-15T22:31:24.119Z,12.50
2022-09-15T22:33:51.254Z,12.50
2022-09-15T22:36:28.949Z,12.60
2022-09-15T22:39:03.680Z,12.50
2022-09-15T22:41:32.021Z,12.60
2022-09-15T22:43:58.845Z,12.60
2022-09-15T22:46:25.642Z,12.60
2022-09-15T22:48:52.230Z,12.60
2022-09-15T22:51:19.022Z,12.60
2022-09-15T22:53:45.618Z,12.60
2022-09-15T22:56:19.926Z,12.60
2022-09-15T22:58:48.336Z,12.60
2022-09-15T23:01:30.432Z,12.50
2022-09-15T23:03:59.529Z,12.50
2022-09-15T23:06:28.618Z,12.50
2022-09-15T23:08:58.020Z,12.40
2022-09-15T23:11:26.031Z,12.40
2022-09-15T23:13:53.944Z,12.40
2022-09-15T23:16:21.722Z,12.40
2022-09-15T23:18:49.074Z,12.30
2022-09-15T23:21:15.817Z,12.30
2022-09-15T23:23:44.195Z,12.30
2022-09-15T23:26:12.171Z,12.20
2022-09-15T23:28:39.209Z,12.20
2022-09-15T23:31:06.884Z,12.20
2022-09-15T23:33:34.500Z,12.20
2022-09-15T23:36:05.889Z,12.20
2022-09-15T23:38:36.223Z,12.20
2022-09-15T23:41:02.889Z,12.20
2022-09-15T23:43:29.550Z,12.10
2022-09-15T23:45:56.157Z,12.10
2022-09-15T23:48:23.332Z,12.00
2022-09-15T23:50:50.009Z,12.00
2022-09-15T23:53:16.837Z,12.00
2022-09-15T23:55:44.003Z,12.00
2022-09-15T23:58:10.913Z,12.00
